首页
METAR-TAF:

METAR-TAF

机场 :

鳳凰城天港國際機場

鳳凰城, 亞利桑那州, 美国

纬度: 33-26-03N, 经度: 112-03-04W, 海拔: 345米

当前天气观测

该预报发布于1小时和4分钟前的07:51 UTC
风速4节,风向西南
温度 18°C
湿度 34%
气压 1010 hPa
能見度: 16.1公里
天空无云

METAR: KPHX 030751Z 22004KT 10SM CLR 18/02 A2983 RMK AO2 SLP087 T01830022

时间: 01:55 (08:55 UTC)

预报

该预报发布于3小时和11分钟前的05:44 UTC
预报有效从03日的 06点(UTC)到 04日的 12点(UTC)
风速5节,风向西转西北
能見度: 10公里
天空无云
从 03日的 0900点(UTC)
风速5节,风向东转东南
能見度: 10公里
天空无云
从 03日的 1900点(UTC)
风速6节,风向
能見度: 10公里
天空无云
从 03日的 2100点(UTC)
风速10节,风向西
能見度: 10公里
天空无云

TAF: KPHX 030544Z 0306/0412 29005KT P6SM SKC FM030900 11005KT P6SM SKC FM031900 19006KT P6SM SKC FM032100 27010KT P6SM SKC

超过4000个机场的气象观测和天气预报(METAR&TAF报告)。

可查询的气象台以黄色和红色小点在地图上表示。

将鼠标移到小点上方,可查看气象台名称。

然后点击查看天气观测和预报。

如需切换地图:点击带黑十字的绿色按钮放大地图;点击带横线的绿色按钮缩小地图;或者点击绿色箭头查看邻近地区的地图。


METAR-TAF: